createdAt,value
2022-09-27T00:02:20.942Z,92723.44
2022-09-27T00:04:47.801Z,92721.09
2022-09-27T00:07:14.639Z,92707.03
2022-09-27T00:09:41.479Z,92709.38
2022-09-27T00:12:09.658Z,92699.75
2022-09-27T00:14:36.441Z,92691.44
2022-09-27T00:17:03.246Z,92689.63
2022-09-27T00:19:30.146Z,92692.75
2022-09-27T00:21:56.939Z,92684.41
2022-09-27T00:24:23.898Z,92676.63
2022-09-27T00:26:51.014Z,92682.03
2022-09-27T00:29:19.139Z,92684.09
2022-09-27T00:31:46.675Z,92678.13
2022-09-27T00:34:22.897Z,92676.84
2022-09-27T00:36:50.419Z,92669.78
2022-09-27T00:39:17.359Z,92672.13
2022-09-27T00:41:44.899Z,92667.66
2022-09-27T00:44:27.081Z,92667.66
2022-09-27T00:47:18.761Z,92656.75
2022-09-27T00:49:55.835Z,92650.56
2022-09-27T00:52:22.550Z,92649.03
2022-09-27T00:54:53.569Z,92642.53
2022-09-27T00:57:21.263Z,92644.81
2022-09-27T00:59:54.818Z,92638.28
2022-09-27T01:02:22.032Z,92652.84
2022-09-27T01:04:49.906Z,92650.25
2022-09-27T01:07:16.741Z,92653.31
2022-09-27T01:09:43.588Z,92655.88
2022-09-27T01:12:51.878Z,92645.84
2022-09-27T01:15:55.826Z,92643.44
2022-09-27T01:18:31.312Z,92638.53
2022-09-27T01:21:34.767Z,92634.38
2022-09-27T01:24:25.697Z,92610.94
2022-09-27T01:27:15.489Z,92608.38
2022-09-27T01:30:19.482Z,92620.66
2022-09-27T01:32:49.537Z,92611.06
2022-09-27T01:35:43.308Z,92596.50
2022-09-27T01:38:22.372Z,92604.81
2022-09-27T01:41:00.617Z,92600.44
2022-09-27T01:43:34.608Z,92598.63
2022-09-27T01:46:12.077Z,92595.50
2022-09-27T01:48:43.199Z,92595.97
2022-09-27T01:51:14.007Z,92578.56
2022-09-27T01:54:07.083Z,92587.69
2022-09-27T01:56:37.477Z,92583.19
2022-09-27T01:59:19.725Z,92584.50
2022-09-27T02:01:49.349Z,92568.91
2022-09-27T02:04:20.343Z,92569.97
2022-09-27T02:06:49.594Z,92563.22
2022-09-27T02:09:24.346Z,92559.63
2022-09-27T02:11:56.409Z,92548.69
2022-09-27T02:14:37.484Z,92543.47
2022-09-27T02:17:30.178Z,92542.97
2022-09-27T02:20:20.526Z,92540.44
2022-09-27T02:22:51.586Z,92529.00
2022-09-27T02:25:33.218Z,92529.03
2022-09-27T02:28:35.141Z,92523.84
2022-09-27T02:31:02.172Z,92520.13
2022-09-27T02:33:38.046Z,92509.22
2022-09-27T02:36:05.359Z,92519.59
2022-09-27T02:38:32.482Z,92513.09
2022-09-27T02:40:59.367Z,92504.84
2022-09-27T02:43:29.441Z,92502.25
2022-09-27T02:46:34.736Z,92499.38
2022-09-27T02:49:23.450Z,92497.31
2022-09-27T02:52:24.145Z,92497.00
2022-09-27T02:55:08.374Z,92499.34
2022-09-27T02:58:05.980Z,92499.38
2022-09-27T03:01:06.032Z,92495.97
2022-09-27T03:03:57.199Z,92498.03
2022-09-27T03:06:24.318Z,92495.19
2022-09-27T03:08:51.407Z,92487.38
2022-09-27T03:11:18.259Z,92493.66
2022-09-27T03:14:06.956Z,92489.22
2022-09-27T03:16:31.975Z,92492.63
2022-09-27T03:18:58.790Z,92484.59
2022-09-27T03:21:25.538Z,92478.88
2022-09-27T03:23:52.259Z,92474.47
2022-09-27T03:26:19.006Z,92468.50
2022-09-27T03:28:46.197Z,92471.06
2022-09-27T03:31:13.175Z,92462.00
2022-09-27T03:33:39.938Z,92458.88
2022-09-27T03:36:07.638Z,92447.19
2022-09-27T03:38:34.399Z,92439.16
2022-09-27T03:41:01.321Z,92442.25
2022-09-27T03:43:28.140Z,92437.59
2022-09-27T03:45:55.125Z,92435.50
2022-09-27T03:48:25.839Z,92441.97
2022-09-27T03:50:54.833Z,92441.97
2022-09-27T03:53:21.638Z,92441.22
2022-09-27T03:55:48.518Z,92436.00
2022-09-27T03:58:15.559Z,92429.78
2022-09-27T04:00:44.146Z,92426.66
2022-09-27T04:03:12.339Z,92410.59
2022-09-27T04:05:39.199Z,92405.66
2022-09-27T04:08:06.519Z,92407.22
2022-09-27T04:10:33.538Z,92397.88
2022-09-27T04:13:00.796Z,92390.34
2022-09-27T04:15:27.859Z,92396.59
2022-09-27T04:17:54.738Z,92389.59
2022-09-27T04:20:21.519Z,92384.09
2022-09-27T04:22:48.308Z,92389.81
2022-09-27T04:25:15.029Z,92380.75
2022-09-27T04:27:45.954Z,92389.84
2022-09-27T04:30:13.303Z,92380.00
2022-09-27T04:32:44.386Z,92377.66
2022-09-27T04:35:30.625Z,92378.94
2022-09-27T04:37:57.717Z,92378.44
2022-09-27T04:40:24.482Z,92378.94
2022-09-27T04:42:51.803Z,92371.69
2022-09-27T04:45:19.219Z,92374.53
2022-09-27T04:47:47.590Z,92375.06
2022-09-27T04:50:15.285Z,92373.25
2022-09-27T04:52:42.101Z,92371.41
2022-09-27T04:55:09.840Z,92368.03
2022-09-27T04:57:36.759Z,92369.09
2022-09-27T05:00:04.621Z,92374.28
2022-09-27T05:02:31.604Z,92371.19
2022-09-27T05:04:59.472Z,92368.84
2022-09-27T05:07:27.497Z,92369.84
2022-09-27T05:09:54.601Z,92362.88
2022-09-27T05:12:21.606Z,92355.34
2022-09-27T05:14:48.303Z,92354.56
2022-09-27T05:17:15.091Z,92350.69
2022-09-27T05:19:41.844Z,92351.44
2022-09-27T05:22:09.094Z,92351.44
2022-09-27T05:24:36.163Z,92346.25
2022-09-27T05:27:03.026Z,92358.97
2022-09-27T05:29:30.491Z,92353.00
2022-09-27T05:31:57.600Z,92349.88
2022-09-27T05:34:24.925Z,92350.41
2022-09-27T05:36:51.660Z,92347.28
2022-09-27T05:39:18.903Z,92346.00
2022-09-27T05:41:46.740Z,92353.78
2022-09-27T05:44:13.713Z,92357.41
2022-09-27T05:46:40.485Z,92360.25
2022-09-27T05:49:07.314Z,92367.03
2022-09-27T05:51:34.471Z,92359.75
2022-09-27T05:54:01.294Z,92365.44
2022-09-27T05:56:28.173Z,92361.56
2022-09-27T05:59:08.070Z,92370.91
2022-09-27T06:01:35.832Z,92377.38
2022-09-27T06:04:05.838Z,92374.28
2022-09-27T06:06:34.337Z,92377.13
2022-09-27T06:09:01.624Z,92379.47
2022-09-27T06:11:28.738Z,92378.41
2022-09-27T06:13:55.642Z,92383.63
2022-09-27T06:16:22.460Z,92391.94
2022-09-27T06:18:49.475Z,92397.59
2022-09-27T06:21:16.182Z,92397.88
2022-09-27T06:23:43.000Z,92411.38
2022-09-27T06:26:11.026Z,92408.78
2022-09-27T06:28:37.890Z,92411.66
2022-09-27T06:31:09.096Z,92422.03
2022-09-27T06:33:36.061Z,92418.88
2022-09-27T06:36:07.182Z,92419.38
2022-09-27T06:38:34.402Z,92434.66
2022-09-27T06:41:02.330Z,92443.69
2022-09-27T06:43:29.705Z,92447.84
2022-09-27T06:45:56.514Z,92459.28
2022-09-27T06:48:23.233Z,92464.47
2022-09-27T06:50:49.954Z,92474.31
2022-09-27T06:53:17.714Z,92479.00
2022-09-27T06:55:44.612Z,92491.94
2022-09-27T06:58:30.292Z,92501.81
2022-09-27T07:00:58.907Z,92509.31
2022-09-27T07:03:37.724Z,92514.31
2022-09-27T07:06:08.681Z,92525.13
2022-09-27T07:08:36.069Z,92535.53
2022-09-27T07:11:05.727Z,92541.47
2022-09-27T07:13:34.677Z,92539.91
2022-09-27T07:16:01.991Z,92543.00
2022-09-27T07:18:29.501Z,92562.47
2022-09-27T07:21:00.133Z,92576.19
2022-09-27T07:23:27.331Z,92574.38
2022-09-27T07:25:54.065Z,92570.97
2022-09-27T07:28:22.269Z,92579.78
2022-09-27T07:30:50.159Z,92578.13
2022-09-27T07:33:17.092Z,92580.66
2022-09-27T07:35:43.952Z,92586.34
2022-09-27T07:38:13.337Z,92596.63
2022-09-27T07:40:41.431Z,92597.09
2022-09-27T07:43:09.574Z,92597.38
2022-09-27T07:45:36.919Z,92607.78
2022-09-27T07:48:13.634Z,92604.75
2022-09-27T07:50:44.150Z,92610.50
2022-09-27T07:53:13.575Z,92612.84
2022-09-27T07:55:41.143Z,92615.44
2022-09-27T07:58:10.262Z,92615.19
2022-09-27T08:00:37.850Z,92616.81
2022-09-27T08:03:10.393Z,92614.22
2022-09-27T08:05:37.451Z,92608.56
2022-09-27T08:08:04.933Z,92599.75
2022-09-27T08:10:32.754Z,92600.03
2022-09-27T08:13:01.214Z,92599.53
2022-09-27T08:15:28.760Z,92607.16
2022-09-27T08:17:55.902Z,92618.66
2022-09-27T08:20:22.878Z,92608.81
2022-09-27T08:22:49.671Z,92616.34
2022-09-27T08:25:16.994Z,92611.47
2022-09-27T08:27:43.848Z,92596.97
2022-09-27T08:30:11.029Z,92592.56
2022-09-27T08:32:38.415Z,92606.09
2022-09-27T08:35:07.401Z,92590.22
2022-09-27T08:37:34.496Z,92605.88
2022-09-27T08:40:02.042Z,92606.81
2022-09-27T08:42:38.058Z,92609.94
2022-09-27T08:45:08.541Z,92617.13
2022-09-27T08:47:46.320Z,92626.88
2022-09-27T08:50:27.322Z,92625.41
2022-09-27T08:52:57.819Z,92617.69
2022-09-27T08:55:48.114Z,92611.97
2022-09-27T08:58:28.521Z,92620.03
2022-09-27T09:00:58.031Z,92614.69
2022-09-27T09:03:30.286Z,92607.16
2022-09-27T09:06:25.992Z,92617.59
2022-09-27T09:09:14.273Z,92619.63
2022-09-27T09:12:28.646Z,92628.75
2022-09-27T09:15:13.572Z,92626.72
2022-09-27T09:18:13.149Z,92620.78
2022-09-27T09:21:16.342Z,92617.91
2022-09-27T09:24:04.129Z,92616.38
2022-09-27T09:26:44.282Z,92611.38
2022-09-27T09:29:21.663Z,92602.31
2022-09-27T09:32:06.252Z,92598.41
2022-09-27T09:34:38.560Z,92603.63
2022-09-27T09:37:51.425Z,92601.28
2022-09-27T09:40:31.747Z,92603.88
2022-09-27T09:43:06.119Z,92606.47
2022-09-27T09:45:46.338Z,92598.16
2022-09-27T09:48:50.841Z,92589.81
2022-09-27T09:51:22.655Z,92588.19
2022-09-27T09:54:01.391Z,92591.84
2022-09-27T09:56:53.469Z,92585.34
2022-09-27T09:59:35.808Z,92598.38
2022-09-27T10:02:15.396Z,92600.69
2022-09-27T10:04:42.184Z,92605.88
2022-09-27T10:07:09.563Z,92596.72
2022-09-27T10:09:36.637Z,92588.63
2022-09-27T10:12:03.833Z,92597.22
2022-09-27T10:14:31.171Z,92593.84
2022-09-27T10:17:00.054Z,92590.78
2022-09-27T10:19:30.560Z,92601.50
2022-09-27T10:22:03.442Z,92605.34
2022-09-27T10:24:31.029Z,92605.88
2022-09-27T10:27:00.501Z,92600.38
2022-09-27T10:29:38.006Z,92603.13
2022-09-27T10:32:06.119Z,92600.84
2022-09-27T10:34:41.423Z,92612.06
2022-09-27T10:37:08.245Z,92626.63
2022-09-27T10:39:35.802Z,92607.38
2022-09-27T10:42:02.653Z,92613.16
2022-09-27T10:44:32.666Z,92614.34
2022-09-27T10:47:06.509Z,92619.94
2022-09-27T10:49:41.493Z,92610.81
2022-09-27T10:52:15.627Z,92599.84
2022-09-27T10:54:43.129Z,92613.09
2022-09-27T10:57:20.075Z,92608.09
2022-09-27T10:59:52.978Z,92613.28
2022-09-27T11:02:22.493Z,92598.19
2022-09-27T11:05:15.393Z,92613.22
2022-09-27T11:07:52.847Z,92611.81
2022-09-27T11:10:37.388Z,92619.47
2022-09-27T11:13:16.022Z,92610.88
2022-09-27T11:15:57.523Z,92612.53
2022-09-27T11:18:55.551Z,92611.28
2022-09-27T11:21:45.519Z,92611.28
2022-09-27T11:24:32.011Z,92618.03
2022-09-27T11:27:10.144Z,92620.41
2022-09-27T11:30:02.712Z,92615.19
2022-09-27T11:32:46.685Z,92615.19
2022-09-27T11:35:44.812Z,92616.69
2022-09-27T11:38:40.777Z,92620.13
2022-09-27T11:42:03.683Z,92635.44
2022-09-27T11:44:33.072Z,92622.50
2022-09-27T11:47:32.686Z,92608.94
2022-09-27T11:50:02.473Z,92610.75
2022-09-27T11:53:10.592Z,92607.38
2022-09-27T11:56:05.880Z,92609.50
2022-09-27T11:58:41.552Z,92606.34
2022-09-27T12:01:28.682Z,92589.91
2022-09-27T12:04:05.691Z,92590.66
2022-09-27T12:07:04.512Z,92572.56
2022-09-27T12:09:35.693Z,92579.53
2022-09-27T12:12:11.582Z,92581.19
2022-09-27T12:14:42.432Z,92589.50
2022-09-27T12:17:16.991Z,92601.59
2022-09-27T12:19:50.562Z,92615.19
2022-09-27T12:22:40.247Z,92606.78
2022-09-27T12:25:19.670Z,92605.72
2022-09-27T12:27:51.632Z,92617.97
2022-09-27T12:30:18.614Z,92619.78
2022-09-27T12:33:26.580Z,92632.25
2022-09-27T12:35:55.353Z,92636.00
2022-09-27T12:38:35.072Z,92631.06
2022-09-27T12:41:02.377Z,92614.31
2022-09-27T12:43:33.902Z,92623.88
2022-09-27T12:46:13.253Z,92604.94
2022-09-27T12:48:43.360Z,92606.16
2022-09-27T12:51:17.871Z,92599.41
2022-09-27T12:53:56.413Z,92599.94
2022-09-27T12:56:35.982Z,92599.91
2022-09-27T12:59:17.596Z,92599.84
2022-09-27T13:02:11.811Z,92592.63
2022-09-27T13:04:55.303Z,92589.59
2022-09-27T13:07:52.379Z,92596.81
2022-09-27T13:10:22.192Z,92591.81
2022-09-27T13:12:50.953Z,92598.09
2022-09-27T13:15:29.135Z,92615.53
2022-09-27T13:18:01.894Z,92622.31
2022-09-27T13:20:31.403Z,92622.50
2022-09-27T13:22:59.432Z,92618.75
2022-09-27T13:25:56.235Z,92631.44
2022-09-27T13:28:29.392Z,92645.63
2022-09-27T13:30:56.905Z,92651.66
2022-09-27T13:33:33.160Z,92645.91
2022-09-27T13:36:08.812Z,92648.53
2022-09-27T13:38:35.604Z,92643.09
2022-09-27T13:41:19.084Z,92628.78
2022-09-27T13:43:58.955Z,92633.19
2022-09-27T13:46:27.091Z,92629.75
2022-09-27T13:49:05.382Z,92637.13
2022-09-27T13:51:42.106Z,92639.72
2022-09-27T13:54:54.542Z,92651.72
2022-09-27T13:57:45.825Z,92654.06
2022-09-27T14:00:22.551Z,92648.34
2022-09-27T14:03:00.996Z,92653.78
2022-09-27T14:05:31.982Z,92658.19
2022-09-27T14:08:00.772Z,92665.47
2022-09-27T14:10:28.010Z,92666.50
2022-09-27T14:12:55.123Z,92657.69
2022-09-27T14:15:25.689Z,92653.78
2022-09-27T14:17:53.152Z,92652.78
2022-09-27T14:20:37.241Z,92666.28
2022-09-27T14:23:04.480Z,92677.44
2022-09-27T14:25:31.301Z,92679.28
2022-09-27T14:28:01.176Z,92686.31
2022-09-27T14:30:30.200Z,92687.09
2022-09-27T14:33:01.721Z,92696.66
2022-09-27T14:35:48.232Z,92703.47
2022-09-27T14:38:36.658Z,92715.41
2022-09-27T14:41:07.337Z,92709.16
2022-09-27T14:43:35.780Z,92705.81
2022-09-27T14:46:08.149Z,92704.47
2022-09-27T14:48:35.883Z,92693.81
2022-09-27T14:51:08.519Z,92705.31
2022-09-27T14:53:45.412Z,92692.03
2022-09-27T14:56:18.135Z,92692.28
2022-09-27T14:58:47.952Z,92689.94
2022-09-27T15:01:16.863Z,92689.69
2022-09-27T15:03:45.523Z,92694.91
2022-09-27T15:06:12.572Z,92705.03
2022-09-27T15:08:39.756Z,92708.16
2022-09-27T15:11:07.797Z,92713.59
2022-09-27T15:13:34.904Z,92716.19
2022-09-27T15:16:01.975Z,92723.72
2022-09-27T15:18:44.316Z,92735.44
2022-09-27T15:21:35.060Z,92710.69
2022-09-27T15:24:02.901Z,92714.06
2022-09-27T15:26:38.632Z,92709.88
2022-09-27T15:29:05.602Z,92723.44
2022-09-27T15:31:36.365Z,92747.88
2022-09-27T15:34:06.210Z,92755.13
2022-09-27T15:36:48.714Z,92742.66
2022-09-27T15:39:29.706Z,92757.63
2022-09-27T15:42:14.792Z,92744.38
2022-09-27T15:44:47.621Z,92734.53
2022-09-27T15:47:34.525Z,92735.78
2022-09-27T15:50:16.344Z,92739.44
2022-09-27T15:52:47.959Z,92732.41
2022-09-27T15:55:16.040Z,92730.81
2022-09-27T15:57:43.693Z,92736.59
2022-09-27T16:00:18.991Z,92739.91
2022-09-27T16:02:46.061Z,92737.59
2022-09-27T16:05:13.251Z,92740.72
2022-09-27T16:07:39.967Z,92755.56
2022-09-27T16:10:18.691Z,92766.22
2022-09-27T16:12:45.533Z,92747.00
2022-09-27T16:15:12.912Z,92751.81
2022-09-27T16:17:42.667Z,92738.56
2022-09-27T16:20:19.761Z,92738.56
2022-09-27T16:22:46.473Z,92739.81
2022-09-27T16:25:13.332Z,92736.16
2022-09-27T16:27:40.140Z,92730.31
2022-09-27T16:30:08.437Z,92724.03
2022-09-27T16:32:41.212Z,92729.19
2022-09-27T16:35:08.552Z,92711.44
2022-09-27T16:37:35.632Z,92724.09
2022-09-27T16:40:03.592Z,92724.34
2022-09-27T16:42:30.332Z,92724.38
2022-09-27T16:44:57.086Z,92722.13
2022-09-27T16:47:23.895Z,92714.88
2022-09-27T16:50:09.318Z,92721.63
2022-09-27T16:52:35.994Z,92719.72
2022-09-27T16:55:02.762Z,92716.97
2022-09-27T16:57:29.516Z,92733.28
2022-09-27T16:59:57.483Z,92734.38
2022-09-27T17:02:24.772Z,92744.75
2022-09-27T17:04:52.274Z,92752.47
2022-09-27T17:07:19.553Z,92744.19
2022-09-27T17:09:46.584Z,92741.03
2022-09-27T17:12:14.211Z,92750.81
2022-09-27T17:14:40.921Z,92755.03
2022-09-27T17:17:07.988Z,92747.75
2022-09-27T17:19:34.813Z,92754.44
2022-09-27T17:22:02.192Z,92766.00
2022-09-27T17:24:28.802Z,92763.44
2022-09-27T17:26:55.574Z,92766.75
2022-09-27T17:29:22.283Z,92759.72
2022-09-27T17:31:48.889Z,92756.06
2022-09-27T17:34:15.795Z,92757.41
2022-09-27T17:36:48.108Z,92762.81
2022-09-27T17:39:16.802Z,92766.53
2022-09-27T17:41:43.885Z,92763.78
2022-09-27T17:44:14.143Z,92765.44
2022-09-27T17:46:42.029Z,92759.09
2022-09-27T17:49:28.749Z,92759.00
2022-09-27T17:51:55.538Z,92751.84
2022-09-27T17:54:24.106Z,92753.81
2022-09-27T17:56:51.263Z,92753.22
2022-09-27T17:59:18.536Z,92754.84
2022-09-27T18:01:46.470Z,92747.78
2022-09-27T18:04:15.934Z,92758.44
2022-09-27T18:06:44.987Z,92754.78
2022-09-27T18:09:12.875Z,92755.28
2022-09-27T18:11:40.012Z,92757.09
2022-09-27T18:14:06.832Z,92764.91
2022-09-27T18:16:36.978Z,92780.28
2022-09-27T18:19:05.244Z,92772.50
2022-09-27T18:21:31.865Z,92776.03
2022-09-27T18:24:00.286Z,92786.47
2022-09-27T18:26:29.067Z,92779.34
2022-09-27T18:29:00.640Z,92786.66
2022-09-27T18:31:27.807Z,92775.53
2022-09-27T18:33:54.431Z,92788.19
2022-09-27T18:36:25.625Z,92774.41
2022-09-27T18:38:57.597Z,92792.28
2022-09-27T18:41:26.357Z,92792.09
2022-09-27T18:43:58.892Z,92779.09
2022-09-27T18:46:36.258Z,92792.47
2022-09-27T18:49:07.832Z,92794.78
2022-09-27T18:51:37.997Z,92800.25
2022-09-27T18:54:10.319Z,92800.50
2022-09-27T18:56:39.658Z,92800.66
2022-09-27T18:59:08.968Z,92807.84
2022-09-27T19:01:39.802Z,92801.75
2022-09-27T19:04:07.820Z,92800.19
2022-09-27T19:06:35.959Z,92801.91
2022-09-27T19:09:04.792Z,92804.47
2022-09-27T19:11:32.172Z,92812.16
2022-09-27T19:13:59.176Z,92812.00
2022-09-27T19:16:28.691Z,92810.66
2022-09-27T19:18:55.839Z,92819.66
2022-09-27T19:21:25.698Z,92826.56
2022-09-27T19:23:52.968Z,92820.13
2022-09-27T19:26:22.717Z,92817.47
2022-09-27T19:28:50.169Z,92819.28
2022-09-27T19:31:18.696Z,92819.19
2022-09-27T19:33:45.683Z,92823.66
2022-09-27T19:36:14.286Z,92825.13
2022-09-27T19:38:41.400Z,92824.47
2022-09-27T19:41:11.556Z,92821.63
2022-09-27T19:43:38.901Z,92829.78
2022-09-27T19:46:15.325Z,92825.97
2022-09-27T19:48:42.698Z,92806.28
2022-09-27T19:51:14.383Z,92824.94
2022-09-27T19:53:40.969Z,92829.09
2022-09-27T19:56:09.417Z,92833.03
2022-09-27T19:58:37.336Z,92823.69
2022-09-27T20:01:12.752Z,92820.00
2022-09-27T20:03:41.525Z,92809.47
2022-09-27T20:06:10.670Z,92809.91
2022-09-27T20:08:37.759Z,92806.47
2022-09-27T20:11:09.128Z,92809.69
2022-09-27T20:13:36.841Z,92825.19
2022-09-27T20:16:07.402Z,92827.47
2022-09-27T20:18:34.384Z,92812.66
2022-09-27T20:21:02.160Z,92822.53
2022-09-27T20:23:30.118Z,92822.38
2022-09-27T20:26:13.916Z,92826.69
2022-09-27T20:28:46.581Z,92823.53
2022-09-27T20:31:16.162Z,92823.50
2022-09-27T20:33:46.814Z,92825.19
2022-09-27T20:36:22.345Z,92823.72
2022-09-27T20:39:02.026Z,92826.19
2022-09-27T20:41:34.627Z,92836.75
2022-09-27T20:44:03.984Z,92838.38
2022-09-27T20:46:31.264Z,92830.06
2022-09-27T20:49:03.666Z,92846.09
2022-09-27T20:51:34.455Z,92834.09
2022-09-27T20:54:02.397Z,92830.84
2022-09-27T20:56:49.842Z,92837.44
2022-09-27T20:59:23.562Z,92839.22
2022-09-27T21:01:51.577Z,92843.75
2022-09-27T21:04:19.529Z,92842.47
2022-09-27T21:06:46.225Z,92842.97
2022-09-27T21:09:20.382Z,92857.19
2022-09-27T21:11:48.445Z,92862.81
2022-09-27T21:14:15.316Z,92859.44
2022-09-27T21:16:42.152Z,92873.50
2022-09-27T21:19:09.968Z,92872.97
2022-09-27T21:21:36.773Z,92876.63
2022-09-27T21:24:03.499Z,92887.38
2022-09-27T21:26:31.829Z,92890.44
2022-09-27T21:29:00.439Z,92891.00
2022-09-27T21:31:29.986Z,92882.09
2022-09-27T21:34:01.529Z,92873.56
2022-09-27T21:36:33.337Z,92876.84
2022-09-27T21:39:00.373Z,92875.69
2022-09-27T21:41:27.440Z,92886.59
2022-09-27T21:43:54.032Z,92872.56
2022-09-27T21:46:23.341Z,92877.81
2022-09-27T21:49:01.870Z,92893.31
2022-09-27T21:51:36.367Z,92902.84
2022-09-27T21:54:04.763Z,92885.47
2022-09-27T21:56:33.590Z,92887.16
2022-09-27T21:59:00.162Z,92875.91
2022-09-27T22:01:29.758Z,92872.56
2022-09-27T22:03:57.800Z,92859.09
2022-09-27T22:06:29.754Z,92864.03
2022-09-27T22:08:57.347Z,92872.34
2022-09-27T22:11:28.756Z,92878.06
2022-09-27T22:13:55.758Z,92873.91
2022-09-27T22:16:22.892Z,92877.16
2022-09-27T22:18:55.041Z,92874.59
2022-09-27T22:21:26.736Z,92874.47
2022-09-27T22:23:57.804Z,92869.63
2022-09-27T22:26:26.602Z,92858.66
2022-09-27T22:28:53.671Z,92856.97
2022-09-27T22:31:21.126Z,92851.94
2022-09-27T22:33:49.814Z,92852.56
2022-09-27T22:36:16.614Z,92860.28
2022-09-27T22:38:43.270Z,92844.97
2022-09-27T22:41:09.829Z,92847.22
2022-09-27T22:43:36.413Z,92841.16
2022-09-27T22:46:03.000Z,92839.38
2022-09-27T22:48:30.843Z,92836.97
2022-09-27T22:50:58.618Z,92831.72
2022-09-27T22:53:25.842Z,92830.38
2022-09-27T22:56:04.688Z,92827.22
2022-09-27T22:58:31.941Z,92829.03
2022-09-27T23:01:06.840Z,92833.50
2022-09-27T23:03:33.527Z,92822.66
2022-09-27T23:06:04.419Z,92820.50
2022-09-27T23:08:35.735Z,92833.25
2022-09-27T23:11:04.444Z,92832.50
2022-09-27T23:13:32.932Z,92844.84
2022-09-27T23:16:04.626Z,92850.66
2022-09-27T23:18:32.092Z,92850.69
2022-09-27T23:21:03.540Z,92858.44
2022-09-27T23:23:31.277Z,92861.06
2022-09-27T23:26:03.207Z,92870.03
2022-09-27T23:28:30.832Z,92865.16
2022-09-27T23:31:04.235Z,92866.63
2022-09-27T23:33:30.874Z,92858.66
2022-09-27T23:35:58.032Z,92859.44
2022-09-27T23:38:24.782Z,92870.09
2022-09-27T23:40:51.469Z,92868.31
2022-09-27T23:43:18.210Z,92858.91
2022-09-27T23:45:44.869Z,92851.38
2022-09-27T23:48:12.953Z,92843.31
2022-09-27T23:50:40.507Z,92839.94
2022-09-27T23:53:07.185Z,92838.72
2022-09-27T23:55:33.963Z,92842.94
2022-09-27T23:58:00.646Z,92846.09
